Villa Union, Argentina
Current Conditions -  °F | °C
As of 11:00 AM on Tuesday 21 Oct 2014 (Local Time) from SCSE Reporting Station
Overcast Overcast  
Wind Chill: 57°   Ceiling: 1700
Heat Index: 57°   Visibility: 6mi
Dew Point: 52°   Wind: 1mph
Humidity: 82%   Direction: NA
Pressure: 30.03"   Gusts: NA
Location:  29.3°S, 68.2°W
Report Text: SCSE 211400Z VRB01KT 9999 SCT013 OVC017 14/11 Q1017
Loading
Personal Weather Stations






























Interactive Weather Map
Tropical Storm Tracking
New forecast layout! Learn more

10-Day Weather Forecast

Advertisements
Track Severe Weather on mobile